Birmingham, Illinois
Current Conditions -  °F | °C
As of 9:15 AM on Thursday 23 Oct 2014 (Local Time) from KMQB Reporting Station
Clear Clear  
Wind Chill: 43°   Ceiling: Unl
Heat Index: 46°   Visibility: 10mi
Dew Point: 43°   Wind: 7mph
Humidity: 87%   Direction: 160°SSE
Pressure: 30.19"   Gusts: NA
Location:  40.2814°N, 90.8526°W
Report Text: KMQB 231415Z AUTO 16006KT 10SM CLR 08/06 A3019 RMK AO2 T00800060
Loading
Personal Weather Stations






























Interactive Weather Map New forecast layout! Learn more

10-Day Weather Forecast

Advertisements
Track Severe Weather on mobile